Brigus, Canada
Current Conditions -  °F | °C
As of 2:00 PM on Friday 21 Nov 2014 (Local Time) from CYYT Reporting Station
Broken Clouds Broken Clouds  
Wind Chill: 39°   Ceiling: 10000
Heat Index: 46°   Visibility: 15mi
Dew Point: 43°   Wind: 18mph
Humidity: 87%   Direction: 260°W
Pressure: 29.44"   Gusts: 29mph
Location:  47.52°N, 53.22°W
Report Text: CYYT 211700Z 26016G25KT 15SM SCT012 BKN100 08/06 A2944 RMK SC4AC2 SLP972
Loading
Personal Weather Stations






























Interactive Weather Map New forecast layout! Learn more

10-Day Weather Forecast

Advertisements
Track Severe Weather on mobile